sensor_id;sensor_type;location;lat;lon;timestamp;temperature;humidity
81867;DHT22;71318;-36.550;-64.300;2023-12-04T00:02:21;15.10;36.50
81867;DHT22;71318;-36.550;-64.300;2023-12-04T00:04:47;15.00;36.70
81867;DHT22;71318;-36.550;-64.300;2023-12-04T00:07:13;14.90;36.00
81867;DHT22;71318;-36.550;-64.300;2023-12-04T00:09:40;14.70;36.00
81867;DHT22;71318;-36.550;-64.300;2023-12-04T00:12:06;14.60;36.00
81867;DHT22;71318;-36.550;-64.300;2023-12-04T00:14:33;14.40;36.50
81867;DHT22;71318;-36.550;-64.300;2023-12-04T00:16:59;14.30;37.70
81867;DHT22;71318;-36.550;-64.300;2023-12-04T00:19:25;14.20;35.30
81867;DHT22;71318;-36.550;-64.300;2023-12-04T00:21:52;14.20;36.20
81867;DHT22;71318;-36.550;-64.300;2023-12-04T00:24:18;14.30;37.50
81867;DHT22;71318;-36.550;-64.300;2023-12-04T00:26:45;14.20;36.50
81867;DHT22;71318;-36.550;-64.300;2023-12-04T00:29:11;14.10;35.80
81867;DHT22;71318;-36.550;-64.300;2023-12-04T00:31:37;14.20;35.70
81867;DHT22;71318;-36.550;-64.300;2023-12-04T00:34:04;14.20;35.90
81867;DHT22;71318;-36.550;-64.300;2023-12-04T00:36:30;14.10;36.60
81867;DHT22;71318;-36.550;-64.300;2023-12-04T00:38:56;14.00;37.40
81867;DHT22;71318;-36.550;-64.300;2023-12-04T00:41:23;13.90;37.50
81867;DHT22;71318;-36.550;-64.300;2023-12-04T00:43:49;13.80;36.60
81867;DHT22;71318;-36.550;-64.300;2023-12-04T00:46:15;13.80;36.00
81867;DHT22;71318;-36.550;-64.300;2023-12-04T00:48:42;13.70;35.40
81867;DHT22;71318;-36.550;-64.300;2023-12-04T00:51:08;13.60;36.50
81867;DHT22;71318;-36.550;-64.300;2023-12-04T00:53:34;13.60;34.80
81867;DHT22;71318;-36.550;-64.300;2023-12-04T00:56:01;13.70;36.00
81867;DHT22;71318;-36.550;-64.300;2023-12-04T00:58:27;13.60;35.00
81867;DHT22;71318;-36.550;-64.300;2023-12-04T01:00:54;13.60;36.60
81867;DHT22;71318;-36.550;-64.300;2023-12-04T01:03:21;13.60;35.20
81867;DHT22;71318;-36.550;-64.300;2023-12-04T01:05:47;13.60;34.50
81867;DHT22;71318;-36.550;-64.300;2023-12-04T01:08:14;13.60;34.50
81867;DHT22;71318;-36.550;-64.300;2023-12-04T01:10:40;13.60;34.70
81867;DHT22;71318;-36.550;-64.300;2023-12-04T01:13:06;13.60;36.80
81867;DHT22;71318;-36.550;-64.300;2023-12-04T01:15:33;13.60;37.20
81867;DHT22;71318;-36.550;-64.300;2023-12-04T01:17:59;13.70;36.50
81867;DHT22;71318;-36.550;-64.300;2023-12-04T01:20:28;13.80;33.80
81867;DHT22;71318;-36.550;-64.300;2023-12-04T01:22:55;13.80;34.80
81867;DHT22;71318;-36.550;-64.300;2023-12-04T01:25:21;13.70;32.50
81867;DHT22;71318;-36.550;-64.300;2023-12-04T01:27:47;13.70;33.60
81867;DHT22;71318;-36.550;-64.300;2023-12-04T01:30:14;13.70;31.60
81867;DHT22;71318;-36.550;-64.300;2023-12-04T01:32:40;13.90;31.40
81867;DHT22;71318;-36.550;-64.300;2023-12-04T01:35:07;14.00;32.10
81867;DHT22;71318;-36.550;-64.300;2023-12-04T01:37:33;14.00;33.30
81867;DHT22;71318;-36.550;-64.300;2023-12-04T01:39:59;14.00;34.80
81867;DHT22;71318;-36.550;-64.300;2023-12-04T01:42:26;14.00;35.90
81867;DHT22;71318;-36.550;-64.300;2023-12-04T01:44:52;14.00;36.40
81867;DHT22;71318;-36.550;-64.300;2023-12-04T01:47:19;13.90;36.80
81867;DHT22;71318;-36.550;-64.300;2023-12-04T01:49:45;13.90;37.20
81867;DHT22;71318;-36.550;-64.300;2023-12-04T01:52:12;13.70;37.50
81867;DHT22;71318;-36.550;-64.300;2023-12-04T01:54:38;13.60;37.40
81867;DHT22;71318;-36.550;-64.300;2023-12-04T01:57:05;13.50;37.30
81867;DHT22;71318;-36.550;-64.300;2023-12-04T01:59:32;13.40;37.50
81867;DHT22;71318;-36.550;-64.300;2023-12-04T02:01:59;13.30;36.60
81867;DHT22;71318;-36.550;-64.300;2023-12-04T02:04:25;13.30;37.00
81867;DHT22;71318;-36.550;-64.300;2023-12-04T02:06:51;13.20;36.90
81867;DHT22;71318;-36.550;-64.300;2023-12-04T02:09:18;13.00;37.40
81867;DHT22;71318;-36.550;-64.300;2023-12-04T02:11:45;13.00;37.80
81867;DHT22;71318;-36.550;-64.300;2023-12-04T02:14:11;13.00;38.60
81867;DHT22;71318;-36.550;-64.300;2023-12-04T02:16:38;13.10;39.80
81867;DHT22;71318;-36.550;-64.300;2023-12-04T02:19:15;13.10;40.10
81867;DHT22;71318;-36.550;-64.300;2023-12-04T02:21:42;12.90;41.40
81867;DHT22;71318;-36.550;-64.300;2023-12-04T02:24:08;12.90;41.70
81867;DHT22;71318;-36.550;-64.300;2023-12-04T02:26:47;12.90;41.90
81867;DHT22;71318;-36.550;-64.300;2023-12-04T02:29:14;12.90;42.20
81867;DHT22;71318;-36.550;-64.300;2023-12-04T02:31:41;12.80;43.20
81867;DHT22;71318;-36.550;-64.300;2023-12-04T02:34:08;12.70;43.50
81867;DHT22;71318;-36.550;-64.300;2023-12-04T02:36:37;12.60;44.50
81867;DHT22;71318;-36.550;-64.300;2023-12-04T02:39:04;12.60;45.90
81867;DHT22;71318;-36.550;-64.300;2023-12-04T02:41:30;12.50;46.50
81867;DHT22;71318;-36.550;-64.300;2023-12-04T02:43:57;12.40;46.50
81867;DHT22;71318;-36.550;-64.300;2023-12-04T02:46:23;12.40;46.20
81867;DHT22;71318;-36.550;-64.300;2023-12-04T02:48:49;12.30;46.20
81867;DHT22;71318;-36.550;-64.300;2023-12-04T02:51:16;12.20;47.00
81867;DHT22;71318;-36.550;-64.300;2023-12-04T02:53:42;12.10;47.00
81867;DHT22;71318;-36.550;-64.300;2023-12-04T02:56:09;12.10;47.80
81867;DHT22;71318;-36.550;-64.300;2023-12-04T02:58:35;12.30;48.10
81867;DHT22;71318;-36.550;-64.300;2023-12-04T03:01:01;12.30;49.00
81867;DHT22;71318;-36.550;-64.300;2023-12-04T03:03:28;12.40;49.80
81867;DHT22;71318;-36.550;-64.300;2023-12-04T03:05:54;12.40;50.50
81867;DHT22;71318;-36.550;-64.300;2023-12-04T03:08:21;12.30;50.60
81867;DHT22;71318;-36.550;-64.300;2023-12-04T03:10:47;12.30;49.30
81867;DHT22;71318;-36.550;-64.300;2023-12-04T03:13:13;12.40;46.50
81867;DHT22;71318;-36.550;-64.300;2023-12-04T03:15:40;12.50;46.60
81867;DHT22;71318;-36.550;-64.300;2023-12-04T03:18:06;12.60;45.60
81867;DHT22;71318;-36.550;-64.300;2023-12-04T03:20:32;12.70;42.70
81867;DHT22;71318;-36.550;-64.300;2023-12-04T03:22:59;12.70;42.70
81867;DHT22;71318;-36.550;-64.300;2023-12-04T03:25:25;12.60;43.70
81867;DHT22;71318;-36.550;-64.300;2023-12-04T03:27:51;12.60;44.20
81867;DHT22;71318;-36.550;-64.300;2023-12-04T03:30:18;12.40;44.70
81867;DHT22;71318;-36.550;-64.300;2023-12-04T03:32:46;12.30;45.40
81867;DHT22;71318;-36.550;-64.300;2023-12-04T03:35:12;12.20;44.20
81867;DHT22;71318;-36.550;-64.300;2023-12-04T03:37:38;12.20;43.70
81867;DHT22;71318;-36.550;-64.300;2023-12-04T03:40:06;12.30;43.20
81867;DHT22;71318;-36.550;-64.300;2023-12-04T03:42:32;12.30;42.70
81867;DHT22;71318;-36.550;-64.300;2023-12-04T03:44:59;12.40;42.80
81867;DHT22;71318;-36.550;-64.300;2023-12-04T03:47:25;12.30;42.70
81867;DHT22;71318;-36.550;-64.300;2023-12-04T03:49:51;12.30;42.70
81867;DHT22;71318;-36.550;-64.300;2023-12-04T03:52:18;12.40;42.60
81867;DHT22;71318;-36.550;-64.300;2023-12-04T03:54:44;12.40;42.50
81867;DHT22;71318;-36.550;-64.300;2023-12-04T03:57:11;12.50;42.00
81867;DHT22;71318;-36.550;-64.300;2023-12-04T03:59:37;12.50;41.90
81867;DHT22;71318;-36.550;-64.300;2023-12-04T04:02:03;12.40;42.20
81867;DHT22;71318;-36.550;-64.300;2023-12-04T04:04:30;12.30;42.60
81867;DHT22;71318;-36.550;-64.300;2023-12-04T04:06:56;12.20;42.70
81867;DHT22;71318;-36.550;-64.300;2023-12-04T04:09:23;12.10;42.70
81867;DHT22;71318;-36.550;-64.300;2023-12-04T04:11:49;12.00;41.90
81867;DHT22;71318;-36.550;-64.300;2023-12-04T04:14:15;12.20;42.40
81867;DHT22;71318;-36.550;-64.300;2023-12-04T04:16:42;12.30;43.20
81867;DHT22;71318;-36.550;-64.300;2023-12-04T04:19:08;12.30;44.90
81867;DHT22;71318;-36.550;-64.300;2023-12-04T04:21:38;12.30;43.20
81867;DHT22;71318;-36.550;-64.300;2023-12-04T04:24:05;12.50;42.10
81867;DHT22;71318;-36.550;-64.300;2023-12-04T04:26:31;12.50;44.40
81867;DHT22;71318;-36.550;-64.300;2023-12-04T04:28:58;12.40;42.90
81867;DHT22;71318;-36.550;-64.300;2023-12-04T04:31:24;12.40;42.40
81867;DHT22;71318;-36.550;-64.300;2023-12-04T04:33:51;12.40;44.80
81867;DHT22;71318;-36.550;-64.300;2023-12-04T04:36:17;12.20;43.40
81867;DHT22;71318;-36.550;-64.300;2023-12-04T04:38:43;12.10;43.40
81867;DHT22;71318;-36.550;-64.300;2023-12-04T04:41:13;11.90;46.40
81867;DHT22;71318;-36.550;-64.300;2023-12-04T04:43:41;11.80;47.70
81867;DHT22;71318;-36.550;-64.300;2023-12-04T04:46:07;11.70;46.30
81867;DHT22;71318;-36.550;-64.300;2023-12-04T04:48:34;11.70;46.20
81867;DHT22;71318;-36.550;-64.300;2023-12-04T04:51:00;11.80;45.60
81867;DHT22;71318;-36.550;-64.300;2023-12-04T04:53:26;12.00;45.50
81867;DHT22;71318;-36.550;-64.300;2023-12-04T04:55:53;12.10;47.80
81867;DHT22;71318;-36.550;-64.300;2023-12-04T04:58:20;12.80;45.80
81867;DHT22;71318;-36.550;-64.300;2023-12-04T05:00:46;12.70;48.10
81867;DHT22;71318;-36.550;-64.300;2023-12-04T05:03:15;12.50;53.40
81867;DHT22;71318;-36.550;-64.300;2023-12-04T05:05:42;12.30;55.70
81867;DHT22;71318;-36.550;-64.300;2023-12-04T05:08:08;12.30;57.30
81867;DHT22;71318;-36.550;-64.300;2023-12-04T05:10:34;12.10;58.60
81867;DHT22;71318;-36.550;-64.300;2023-12-04T05:13:01;12.10;59.00
81867;DHT22;71318;-36.550;-64.300;2023-12-04T05:15:27;11.90;60.60
81867;DHT22;71318;-36.550;-64.300;2023-12-04T05:17:53;11.60;63.20
81867;DHT22;71318;-36.550;-64.300;2023-12-04T05:20:20;11.40;64.60
81867;DHT22;71318;-36.550;-64.300;2023-12-04T05:22:46;11.40;65.00
81867;DHT22;71318;-36.550;-64.300;2023-12-04T05:25:14;11.30;65.60
81867;DHT22;71318;-36.550;-64.300;2023-12-04T05:27:40;11.30;65.60
81867;DHT22;71318;-36.550;-64.300;2023-12-04T05:30:07;11.40;64.90
81867;DHT22;71318;-36.550;-64.300;2023-12-04T05:32:34;11.60;64.50
81867;DHT22;71318;-36.550;-64.300;2023-12-04T05:35:00;11.60;64.30
81867;DHT22;71318;-36.550;-64.300;2023-12-04T05:37:26;11.70;64.00
81867;DHT22;71318;-36.550;-64.300;2023-12-04T05:39:53;11.70;63.60
81867;DHT22;71318;-36.550;-64.300;2023-12-04T05:42:20;11.70;64.10
81867;DHT22;71318;-36.550;-64.300;2023-12-04T05:44:46;11.70;63.50
81867;DHT22;71318;-36.550;-64.300;2023-12-04T05:47:12;11.80;62.70
81867;DHT22;71318;-36.550;-64.300;2023-12-04T05:49:40;12.00;61.80
81867;DHT22;71318;-36.550;-64.300;2023-12-04T05:52:06;12.00;61.80
81867;DHT22;71318;-36.550;-64.300;2023-12-04T05:54:33;11.90;62.10
81867;DHT22;71318;-36.550;-64.300;2023-12-04T05:56:59;11.90;62.20
81867;DHT22;71318;-36.550;-64.300;2023-12-04T05:59:25;11.90;62.00
81867;DHT22;71318;-36.550;-64.300;2023-12-04T06:01:52;11.90;61.90
81867;DHT22;71318;-36.550;-64.300;2023-12-04T06:04:18;11.90;62.10
81867;DHT22;71318;-36.550;-64.300;2023-12-04T06:06:44;11.90;62.20
81867;DHT22;71318;-36.550;-64.300;2023-12-04T06:09:11;11.80;62.40
81867;DHT22;71318;-36.550;-64.300;2023-12-04T06:11:37;11.90;62.00
81867;DHT22;71318;-36.550;-64.300;2023-12-04T06:14:04;11.90;61.90
81867;DHT22;71318;-36.550;-64.300;2023-12-04T06:16:30;11.80;62.40
81867;DHT22;71318;-36.550;-64.300;2023-12-04T06:18:56;11.80;62.90
81867;DHT22;71318;-36.550;-64.300;2023-12-04T06:21:23;11.70;63.10
81867;DHT22;71318;-36.550;-64.300;2023-12-04T06:23:49;11.70;63.50
81867;DHT22;71318;-36.550;-64.300;2023-12-04T06:26:16;11.60;64.00
81867;DHT22;71318;-36.550;-64.300;2023-12-04T06:28:43;11.60;64.00
81867;DHT22;71318;-36.550;-64.300;2023-12-04T06:31:10;11.60;64.10
81867;DHT22;71318;-36.550;-64.300;2023-12-04T06:33:36;11.50;64.40
81867;DHT22;71318;-36.550;-64.300;2023-12-04T06:36:04;11.50;64.10
81867;DHT22;71318;-36.550;-64.300;2023-12-04T06:38:31;11.50;64.40
81867;DHT22;71318;-36.550;-64.300;2023-12-04T06:41:01;11.50;64.70
81867;DHT22;71318;-36.550;-64.300;2023-12-04T06:43:27;11.50;64.60
81867;DHT22;71318;-36.550;-64.300;2023-12-04T06:45:54;11.50;64.90
81867;DHT22;71318;-36.550;-64.300;2023-12-04T06:48:24;11.50;64.50
81867;DHT22;71318;-36.550;-64.300;2023-12-04T06:50:51;11.50;64.60
81867;DHT22;71318;-36.550;-64.300;2023-12-04T06:53:17;11.50;64.40
81867;DHT22;71318;-36.550;-64.300;2023-12-04T06:55:43;11.50;64.70
81867;DHT22;71318;-36.550;-64.300;2023-12-04T06:58:10;11.50;65.00
81867;DHT22;71318;-36.550;-64.300;2023-12-04T07:00:36;11.50;65.00
81867;DHT22;71318;-36.550;-64.300;2023-12-04T07:03:03;11.50;65.20
81867;DHT22;71318;-36.550;-64.300;2023-12-04T07:05:29;11.50;65.00
81867;DHT22;71318;-36.550;-64.300;2023-12-04T07:07:55;11.50;65.20
81867;DHT22;71318;-36.550;-64.300;2023-12-04T07:10:22;11.50;65.20
81867;DHT22;71318;-36.550;-64.300;2023-12-04T07:12:48;11.40;66.00
81867;DHT22;71318;-36.550;-64.300;2023-12-04T07:15:14;11.40;66.20
81867;DHT22;71318;-36.550;-64.300;2023-12-04T07:17:41;11.30;66.80
81867;DHT22;71318;-36.550;-64.300;2023-12-04T07:20:07;11.30;67.00
81867;DHT22;71318;-36.550;-64.300;2023-12-04T07:22:34;11.30;67.20
81867;DHT22;71318;-36.550;-64.300;2023-12-04T07:25:00;11.30;67.70
81867;DHT22;71318;-36.550;-64.300;2023-12-04T07:27:27;11.20;68.20
81867;DHT22;71318;-36.550;-64.300;2023-12-04T07:29:54;11.10;68.70
81867;DHT22;71318;-36.550;-64.300;2023-12-04T07:32:20;11.00;69.20
81867;DHT22;71318;-36.550;-64.300;2023-12-04T07:34:46;11.10;69.20
81867;DHT22;71318;-36.550;-64.300;2023-12-04T07:37:13;11.00;69.70
81867;DHT22;71318;-36.550;-64.300;2023-12-04T07:39:39;11.00;69.80
81867;DHT22;71318;-36.550;-64.300;2023-12-04T07:42:06;11.00;70.40
81867;DHT22;71318;-36.550;-64.300;2023-12-04T07:44:32;10.90;70.60
81867;DHT22;71318;-36.550;-64.300;2023-12-04T07:46:58;11.00;70.90
81867;DHT22;71318;-36.550;-64.300;2023-12-04T07:49:25;10.90;71.50
81867;DHT22;71318;-36.550;-64.300;2023-12-04T07:51:51;10.90;72.00
81867;DHT22;71318;-36.550;-64.300;2023-12-04T07:54:18;10.90;72.30
81867;DHT22;71318;-36.550;-64.300;2023-12-04T07:56:44;10.80;72.60
81867;DHT22;71318;-36.550;-64.300;2023-12-04T07:59:10;10.80;73.30
81867;DHT22;71318;-36.550;-64.300;2023-12-04T08:01:37;10.80;73.60
81867;DHT22;71318;-36.550;-64.300;2023-12-04T08:04:03;10.80;73.90
81867;DHT22;71318;-36.550;-64.300;2023-12-04T08:06:30;10.70;74.70
81867;DHT22;71318;-36.550;-64.300;2023-12-04T08:08:56;10.70;75.00
81867;DHT22;71318;-36.550;-64.300;2023-12-04T08:11:23;10.60;75.90
81867;DHT22;71318;-36.550;-64.300;2023-12-04T08:13:49;10.60;76.20
81867;DHT22;71318;-36.550;-64.300;2023-12-04T08:16:16;10.60;76.40
81867;DHT22;71318;-36.550;-64.300;2023-12-04T08:18:42;10.60;76.70
81867;DHT22;71318;-36.550;-64.300;2023-12-04T08:21:09;10.60;77.00
81867;DHT22;71318;-36.550;-64.300;2023-12-04T08:23:35;10.50;77.70
81867;DHT22;71318;-36.550;-64.300;2023-12-04T08:26:02;10.50;78.40
81867;DHT22;71318;-36.550;-64.300;2023-12-04T08:28:28;10.40;78.80
81867;DHT22;71318;-36.550;-64.300;2023-12-04T08:30:55;10.40;79.30
81867;DHT22;71318;-36.550;-64.300;2023-12-04T08:33:21;10.40;79.40
81867;DHT22;71318;-36.550;-64.300;2023-12-04T08:35:47;10.30;80.00
81867;DHT22;71318;-36.550;-64.300;2023-12-04T08:38:14;10.30;80.60
81867;DHT22;71318;-36.550;-64.300;2023-12-04T08:40:40;10.20;80.80
81867;DHT22;71318;-36.550;-64.300;2023-12-04T08:43:08;10.20;81.20
81867;DHT22;71318;-36.550;-64.300;2023-12-04T08:45:34;10.20;81.60
81867;DHT22;71318;-36.550;-64.300;2023-12-04T08:48:01;10.10;82.40
81867;DHT22;71318;-36.550;-64.300;2023-12-04T08:50:28;10.00;83.00
81867;DHT22;71318;-36.550;-64.300;2023-12-04T08:52:54;10.00;83.20
81867;DHT22;71318;-36.550;-64.300;2023-12-04T08:55:21;10.00;83.50
81867;DHT22;71318;-36.550;-64.300;2023-12-04T08:57:47;10.00;83.70
81867;DHT22;71318;-36.550;-64.300;2023-12-04T09:00:14;10.00;84.10
81867;DHT22;71318;-36.550;-64.300;2023-12-04T09:02:40;10.00;84.60
81867;DHT22;71318;-36.550;-64.300;2023-12-04T09:05:07;9.90;84.90
81867;DHT22;71318;-36.550;-64.300;2023-12-04T09:07:35;9.90;85.30
81867;DHT22;71318;-36.550;-64.300;2023-12-04T09:10:01;10.00;85.30
81867;DHT22;71318;-36.550;-64.300;2023-12-04T09:12:27;10.00;85.40
81867;DHT22;71318;-36.550;-64.300;2023-12-04T09:14:54;10.00;86.00
81867;DHT22;71318;-36.550;-64.300;2023-12-04T09:17:20;9.90;86.50
81867;DHT22;71318;-36.550;-64.300;2023-12-04T09:19:46;9.90;86.80
81867;DHT22;71318;-36.550;-64.300;2023-12-04T09:22:13;10.00;86.70
81867;DHT22;71318;-36.550;-64.300;2023-12-04T09:24:39;10.10;86.60
81867;DHT22;71318;-36.550;-64.300;2023-12-04T09:27:05;10.10;86.80
81867;DHT22;71318;-36.550;-64.300;2023-12-04T09:29:33;10.20;86.70
81867;DHT22;71318;-36.550;-64.300;2023-12-04T09:31:59;10.30;86.10
81867;DHT22;71318;-36.550;-64.300;2023-12-04T09:34:26;10.30;86.50
81867;DHT22;71318;-36.550;-64.300;2023-12-04T09:36:52;10.30;86.50
81867;DHT22;71318;-36.550;-64.300;2023-12-04T09:39:18;10.40;86.40
81867;DHT22;71318;-36.550;-64.300;2023-12-04T09:41:45;10.40;86.50
81867;DHT22;71318;-36.550;-64.300;2023-12-04T09:44:12;10.50;86.60
81867;DHT22;71318;-36.550;-64.300;2023-12-04T09:46:39;10.60;86.30
81867;DHT22;71318;-36.550;-64.300;2023-12-04T09:49:05;10.60;86.30
81867;DHT22;71318;-36.550;-64.300;2023-12-04T09:51:33;10.70;86.30
81867;DHT22;71318;-36.550;-64.300;2023-12-04T09:54:01;10.80;85.90
81867;DHT22;71318;-36.550;-64.300;2023-12-04T09:56:29;10.80;86.30
81867;DHT22;71318;-36.550;-64.300;2023-12-04T09:58:59;10.90;86.00
81867;DHT22;71318;-36.550;-64.300;2023-12-04T10:01:29;11.00;86.10
81867;DHT22;71318;-36.550;-64.300;2023-12-04T10:03:58;11.10;85.70
81867;DHT22;71318;-36.550;-64.300;2023-12-04T10:06:28;11.20;85.80
81867;DHT22;71318;-36.550;-64.300;2023-12-04T10:08:55;11.40;84.90
81867;DHT22;71318;-36.550;-64.300;2023-12-04T10:11:24;11.60;84.50
81867;DHT22;71318;-36.550;-64.300;2023-12-04T10:13:50;11.80;84.50
81867;DHT22;71318;-36.550;-64.300;2023-12-04T10:16:33;11.90;84.10
81867;DHT22;71318;-36.550;-64.300;2023-12-04T10:21:51;12.20;83.50
81867;DHT22;71318;-36.550;-64.300;2023-12-04T10:24:34;12.50;82.80
81867;DHT22;71318;-36.550;-64.300;2023-12-04T10:27:07;12.60;82.40
81867;DHT22;71318;-36.550;-64.300;2023-12-04T10:32:11;13.00;80.00
81867;DHT22;71318;-36.550;-64.300;2023-12-04T10:34:38;13.10;79.20
81867;DHT22;71318;-36.550;-64.300;2023-12-04T10:37:04;13.20;79.30
81867;DHT22;71318;-36.550;-64.300;2023-12-04T10:39:31;13.20;79.10
81867;DHT22;71318;-36.550;-64.300;2023-12-04T10:42:04;13.20;79.30
81867;DHT22;71318;-36.550;-64.300;2023-12-04T10:44:32;13.50;78.80
81867;DHT22;71318;-36.550;-64.300;2023-12-04T10:46:59;13.60;77.90
81867;DHT22;71318;-36.550;-64.300;2023-12-04T10:49:27;13.60;78.60
81867;DHT22;71318;-36.550;-64.300;2023-12-04T10:51:57;13.60;77.50
81867;DHT22;71318;-36.550;-64.300;2023-12-04T10:54:27;13.90;77.30
81867;DHT22;71318;-36.550;-64.300;2023-12-04T10:56:53;13.90;76.70
81867;DHT22;71318;-36.550;-64.300;2023-12-04T10:59:25;14.00;77.30
81867;DHT22;71318;-36.550;-64.300;2023-12-04T11:01:52;14.30;75.30
81867;DHT22;71318;-36.550;-64.300;2023-12-04T11:04:21;14.30;75.10
81867;DHT22;71318;-36.550;-64.300;2023-12-04T11:06:49;14.40;75.00
81867;DHT22;71318;-36.550;-64.300;2023-12-04T11:09:18;14.60;74.50
81867;DHT22;71318;-36.550;-64.300;2023-12-04T11:11:46;14.70;73.30
81867;DHT22;71318;-36.550;-64.300;2023-12-04T11:14:14;15.00;72.90
81867;DHT22;71318;-36.550;-64.300;2023-12-04T11:16:45;15.20;72.10
81867;DHT22;71318;-36.550;-64.300;2023-12-04T11:22:00;15.20;71.30
81867;DHT22;71318;-36.550;-64.300;2023-12-04T11:24:27;15.40;70.30
81867;DHT22;71318;-36.550;-64.300;2023-12-04T11:26:54;15.40;69.00
81867;DHT22;71318;-36.550;-64.300;2023-12-04T11:29:21;15.80;68.10
81867;DHT22;71318;-36.550;-64.300;2023-12-04T11:31:47;15.90;67.30
81867;DHT22;71318;-36.550;-64.300;2023-12-04T11:34:14;15.90;67.90
81867;DHT22;71318;-36.550;-64.300;2023-12-04T11:36:40;16.20;66.90
81867;DHT22;71318;-36.550;-64.300;2023-12-04T11:39:10;16.30;66.60
81867;DHT22;71318;-36.550;-64.300;2023-12-04T11:41:36;16.40;65.70
81867;DHT22;71318;-36.550;-64.300;2023-12-04T11:44:03;16.50;64.20
81867;DHT22;71318;-36.550;-64.300;2023-12-04T11:46:29;16.60;64.30
81867;DHT22;71318;-36.550;-64.300;2023-12-04T11:54:14;16.90;63.40
81867;DHT22;71318;-36.550;-64.300;2023-12-04T11:56:56;16.90;62.10
81867;DHT22;71318;-36.550;-64.300;2023-12-04T11:59:22;17.00;62.60
81867;DHT22;71318;-36.550;-64.300;2023-12-04T12:01:55;17.40;61.30
81867;DHT22;71318;-36.550;-64.300;2023-12-04T12:04:22;17.10;59.50
81867;DHT22;71318;-36.550;-64.300;2023-12-04T12:06:49;17.70;61.20
81867;DHT22;71318;-36.550;-64.300;2023-12-04T12:09:16;17.90;59.60
81867;DHT22;71318;-36.550;-64.300;2023-12-04T12:11:42;17.90;60.70
81867;DHT22;71318;-36.550;-64.300;2023-12-04T12:14:09;18.10;61.20
81867;DHT22;71318;-36.550;-64.300;2023-12-04T12:16:36;18.20;56.90
81867;DHT22;71318;-36.550;-64.300;2023-12-04T12:19:02;18.20;57.10
81867;DHT22;71318;-36.550;-64.300;2023-12-04T12:21:28;18.40;56.80
81867;DHT22;71318;-36.550;-64.300;2023-12-04T12:23:55;18.50;55.60
81867;DHT22;71318;-36.550;-64.300;2023-12-04T12:26:21;18.90;54.70
81867;DHT22;71318;-36.550;-64.300;2023-12-04T12:28:47;19.00;54.60
81867;DHT22;71318;-36.550;-64.300;2023-12-04T12:31:14;19.20;53.80
81867;DHT22;71318;-36.550;-64.300;2023-12-04T12:33:41;19.00;55.20
81867;DHT22;71318;-36.550;-64.300;2023-12-04T12:36:07;19.30;50.40
81867;DHT22;71318;-36.550;-64.300;2023-12-04T12:38:37;19.20;52.20
81867;DHT22;71318;-36.550;-64.300;2023-12-04T12:41:07;19.60;52.20
81867;DHT22;71318;-36.550;-64.300;2023-12-04T12:43:37;19.50;51.30
81867;DHT22;71318;-36.550;-64.300;2023-12-04T12:46:04;20.00;50.10
81867;DHT22;71318;-36.550;-64.300;2023-12-04T12:48:31;20.20;49.20
81867;DHT22;71318;-36.550;-64.300;2023-12-04T12:50:58;19.80;51.20
81867;DHT22;71318;-36.550;-64.300;2023-12-04T12:53:24;20.10;46.60
81867;DHT22;71318;-36.550;-64.300;2023-12-04T12:55:51;20.10;46.20
81867;DHT22;71318;-36.550;-64.300;2023-12-04T13:00:07;20.20;48.00
81867;DHT22;71318;-36.550;-64.300;2023-12-04T13:02:34;20.30;50.90
81867;DHT22;71318;-36.550;-64.300;2023-12-04T13:06:57;20.50;46.50
81867;DHT22;71318;-36.550;-64.300;2023-12-04T13:09:23;20.60;46.90
81867;DHT22;71318;-36.550;-64.300;2023-12-04T13:11:50;20.80;50.40
81867;DHT22;71318;-36.550;-64.300;2023-12-04T13:14:17;20.70;44.10
81867;DHT22;71318;-36.550;-64.300;2023-12-04T13:16:44;21.00;45.10
81867;DHT22;71318;-36.550;-64.300;2023-12-04T13:19:10;20.90;42.30
81867;DHT22;71318;-36.550;-64.300;2023-12-04T13:21:37;21.10;42.80
81867;DHT22;71318;-36.550;-64.300;2023-12-04T13:24:03;21.50;44.30
81867;DHT22;71318;-36.550;-64.300;2023-12-04T13:26:33;21.40;40.60
81867;DHT22;71318;-36.550;-64.300;2023-12-04T13:28:59;21.00;43.40
81867;DHT22;71318;-36.550;-64.300;2023-12-04T13:31:25;21.30;40.60
81867;DHT22;71318;-36.550;-64.300;2023-12-04T13:33:53;21.40;42.20
81867;DHT22;71318;-36.550;-64.300;2023-12-04T13:36:20;22.00;39.20
81867;DHT22;71318;-36.550;-64.300;2023-12-04T13:38:46;21.70;41.00
81867;DHT22;71318;-36.550;-64.300;2023-12-04T13:41:12;22.20;34.10
81867;DHT22;71318;-36.550;-64.300;2023-12-04T13:44:05;21.90;35.90
81867;DHT22;71318;-36.550;-64.300;2023-12-04T13:46:32;22.10;35.90
81867;DHT22;71318;-36.550;-64.300;2023-12-04T13:48:59;22.30;37.60
81867;DHT22;71318;-36.550;-64.300;2023-12-04T13:51:25;22.50;35.00
81867;DHT22;71318;-36.550;-64.300;2023-12-04T13:53:52;21.80;38.00
81867;DHT22;71318;-36.550;-64.300;2023-12-04T13:56:24;22.40;34.00
81867;DHT22;71318;-36.550;-64.300;2023-12-04T13:59:01;22.20;31.70
81867;DHT22;71318;-36.550;-64.300;2023-12-04T14:01:29;22.40;31.80
81867;DHT22;71318;-36.550;-64.300;2023-12-04T14:03:56;22.30;34.00
81867;DHT22;71318;-36.550;-64.300;2023-12-04T14:06:32;22.30;33.90
81867;DHT22;71318;-36.550;-64.300;2023-12-04T14:08:58;22.40;34.90
81867;DHT22;71318;-36.550;-64.300;2023-12-04T14:11:25;22.70;33.80
81867;DHT22;71318;-36.550;-64.300;2023-12-04T14:13:51;22.20;33.70
81867;DHT22;71318;-36.550;-64.300;2023-12-04T14:16:17;23.30;36.00
81867;DHT22;71318;-36.550;-64.300;2023-12-04T14:18:44;22.70;31.20
81867;DHT22;71318;-36.550;-64.300;2023-12-04T14:21:11;22.60;33.10
81867;DHT22;71318;-36.550;-64.300;2023-12-04T14:23:37;22.90;31.30
81867;DHT22;71318;-36.550;-64.300;2023-12-04T14:26:04;23.20;27.50
81867;DHT22;71318;-36.550;-64.300;2023-12-04T14:28:30;23.20;31.50
81867;DHT22;71318;-36.550;-64.300;2023-12-04T14:30:57;22.90;29.00
81867;DHT22;71318;-36.550;-64.300;2023-12-04T14:33:23;23.20;31.90
81867;DHT22;71318;-36.550;-64.300;2023-12-04T14:35:50;23.60;31.00
81867;DHT22;71318;-36.550;-64.300;2023-12-04T14:38:16;23.60;28.90
81867;DHT22;71318;-36.550;-64.300;2023-12-04T14:40:43;23.30;29.90
81867;DHT22;71318;-36.550;-64.300;2023-12-04T14:43:09;23.10;29.00
81867;DHT22;71318;-36.550;-64.300;2023-12-04T14:45:37;22.90;29.60
81867;DHT22;71318;-36.550;-64.300;2023-12-04T14:48:04;23.40;29.60
81867;DHT22;71318;-36.550;-64.300;2023-12-04T14:50:33;23.80;30.50
81867;DHT22;71318;-36.550;-64.300;2023-12-04T14:53:01;23.90;30.90
81867;DHT22;71318;-36.550;-64.300;2023-12-04T14:55:44;23.20;27.30
81867;DHT22;71318;-36.550;-64.300;2023-12-04T14:58:33;23.00;29.30
81867;DHT22;71318;-36.550;-64.300;2023-12-04T15:01:18;23.50;29.30
81867;DHT22;71318;-36.550;-64.300;2023-12-04T15:04:02;23.90;27.90
81867;DHT22;71318;-36.550;-64.300;2023-12-04T15:06:47;24.00;28.10